Rockport, WA

4:15 AM PST on December 18, 2014 (GMT -0800)
Newhalem Helistop | Change Station
CLOSE
Current Station
Personal Weather Station
Location: Newhalem, WA
Elevation: 504 ft
Nearby Weather Stations

Elev 504 ft 48.67 °N, 121.25 °W | Updated 46 seconds ago

Ice Pellets
Ice Pellets
39.9 °F
Feels Like 40 °F
N
0.0
Wind Variable Wind from North
Gusts 2.0 mph

Today
High -- | Low -- °F
--% Chance of Precip.
Yesterday
High -- | Low -- °F
Precip. -- in
7:53 AM 4:10 PM
Waning Crescent, 15% visible
Pressure 29.95 in
Visibility 8.0 miles
Clouds Mostly Cloudy 900 ft
Overcast 1500 ft
Windchill 40 °F
Dew Point 40 °F
Humidity 100%
Rainfall 0.02 in
Snow Depth Not available.
UV 0.0 out of 12
Pollen .30 out of 12
Air Quality Not available.
Flu Activity Not available.
METAR KAWO 181155Z AUTO 18003KT 8SM BKN009 OVC015 07/04 A2995 RMK AO1 P0001 60001 70001 10080 20040 52003

More Conditions Fewer Conditions

Pressure 29.95 in
Visibility 8.0 miles
Clouds Mostly Cloudy 900 ft
Overcast 1500 ft
Windchill 40 °F
Dew Point 40 °F
Humidity 100%
Rainfall 0.02 in
Snow Depth Not available.
UV 0.0 out of 12
Pollen .30 out of 12
Air Quality Not available.
Flu Activity Not available.
METAR KAWO 181155Z AUTO 18003KT 8SM BKN009 OVC015 07/04 A2995 RMK AO1 P0001 60001 70001 10080 20040 52003

More Conditions Fewer Conditions

10-Day Weather Forecast

Almanac

Astronomy

Dec. 18, 2014 Rise Set
Actual Time
Civil Twilight
Nautical Twilight
Astronomical Twilight
Moon
Length of Visible Light
Length of Day
Tomorrow will be .
, % of the Moon is Illuminated

Today's Extremes

State Highs State Lows

Community

WunderPhotos

Upload Photos

1,778,923 photos uploaded!

WunderBlogs® & News

Nearby

Air Quality

  Air Quality AQ Index Pollutant
Not available.

Snow Depth

Station Depth Elevation

Earthquake Activity

City Distance Mag. Time & Date
Minimum magnitude displayed is 2.5.

Coastal Water Temperatures

Place Temperature

Nearby Weather Stations